CheckWX is a tool to help pilots better visualize weather data.  It is not intended as a substitute for an official pre-flight weather briefing.

12:18:28 UTC

KRME METAR
Griffiss International Airport
Rome, New York, USA
Current

25 mins ago

KRME 181153Z 14003KT 10SM OVC034 M06/M07 A2980 RMK AO2 SLP096 60000 T10561067 11050 21056 58008
Observed
Feb-18 @ 11:53 UTC
Wind
  • 140° at 3 KTS
Visibility
10 SM
Flight Rules
VFR
Cloud Levels
  • Overcast at 3,400' AGL
Temperature
-6°C / 21°F
Dewpoint
-7°C / 19°F
Humidity
93%
Altimeter
29.8" Hg
Pressure
1009.6 hPa
Previous

1 hour ago

KRME 181053Z AUTO 14004KT 10SM OVC036 M06/M07 A2982 RMK AO2 SNE41 SLP104 P0000 T10561067
Observed
Feb-18 @ 10:53 UTC
Wind
  • 140° at 4 KTS
Visibility
10 SM
Flight Rules
VFR
Cloud Levels
  • Overcast at 3,600' AGL
Temperature
-6°C / 21°F
Dewpoint
-7°C / 19°F
Humidity
93%
Altimeter
29.82" Hg
Pressure
1010.4 hPa
Current Rain
0.01"
Previous

2 hours ago

KRME 180953Z AUTO 12006KT 5SM -SN BR SCT031 BKN044 OVC055 M05/M07 A2982 RMK AO2 SLP104 P0000 T10501067
Observed
Feb-18 @ 09:53 UTC
Wind
  • 120° at 6 KTS
Visibility
5 SM
Flight Rules
MVFR
Conditions
Light Snow, Mist
Cloud Levels
  • Scattered at 3,100' AGL
  • Broken at 4,400' AGL
  • Overcast at 5,500' AGL
Temperature
-5°C / 23°F
Dewpoint
-7°C / 19°F
Humidity
86%
Altimeter
29.82" Hg
Pressure
1010.4 hPa
Current Rain
0.01"